createdAt,value
2023-11-27T00:00:37.363Z,11.80
2023-11-27T00:03:33.235Z,10.60
2023-11-27T00:06:19.480Z,15.20
2023-11-27T00:09:06.006Z,13.50
2023-11-27T00:11:52.834Z,12.20
2023-11-27T00:14:39.422Z,13.70
2023-11-27T00:17:26.484Z,14.40
2023-11-27T00:20:13.376Z,10.20
2023-11-27T00:23:00.127Z,14.10
2023-11-27T00:25:46.415Z,13.50
2023-11-27T00:28:33.615Z,14.70
2023-11-27T00:31:20.259Z,21.60
2023-11-27T00:34:06.799Z,20.30
2023-11-27T00:36:53.479Z,15.80
2023-11-27T00:39:41.446Z,16.90
2023-11-27T00:42:29.468Z,27.60
2023-11-27T00:45:16.074Z,23.10
2023-11-27T00:48:03.341Z,20.70
2023-11-27T00:50:49.713Z,23.10
2023-11-27T00:53:37.428Z,20.80
2023-11-27T00:56:24.297Z,19.10
2023-11-27T00:59:10.908Z,23.50
2023-11-27T01:01:57.813Z,18.50
2023-11-27T01:04:44.474Z,19.60
2023-11-27T01:07:31.570Z,19.00
2023-11-27T01:10:18.704Z,17.20
2023-11-27T01:13:06.038Z,14.60
2023-11-27T01:15:57.937Z,16.10
2023-11-27T01:18:44.668Z,10.60
2023-11-27T01:21:31.009Z,15.10
2023-11-27T01:24:17.526Z,16.10
2023-11-27T01:27:04.476Z,11.70
2023-11-27T01:29:51.063Z,13.20
2023-11-27T01:32:38.364Z,18.90
2023-11-27T01:35:25.366Z,9.50
2023-11-27T01:38:11.789Z,12.30
2023-11-27T01:40:58.779Z,15.30
2023-11-27T01:43:46.310Z,11.90
2023-11-27T01:46:32.892Z,16.10
2023-11-27T01:49:20.315Z,9.00
2023-11-27T01:52:09.047Z,13.50
2023-11-27T01:54:56.927Z,14.70
2023-11-27T01:57:43.864Z,15.80
2023-11-27T02:00:31.457Z,17.60
2023-11-27T02:03:18.010Z,14.10
2023-11-27T02:06:05.270Z,20.30
2023-11-27T02:08:51.657Z,14.40
2023-11-27T02:12:04.659Z,16.50
2023-11-27T02:14:53.713Z,22.40
2023-11-27T02:17:40.252Z,17.00
2023-11-27T02:20:26.806Z,13.00
2023-11-27T02:23:18.181Z,27.90
2023-11-27T02:26:05.650Z,17.40
2023-11-27T02:28:52.602Z,14.50
2023-11-27T02:31:40.103Z,14.40
2023-11-27T02:34:26.809Z,16.60
2023-11-27T02:37:13.594Z,17.80
2023-11-27T02:40:00.573Z,16.90
2023-11-27T02:42:47.205Z,15.30
2023-11-27T02:45:34.736Z,14.50
2023-11-27T02:48:21.865Z,16.70
2023-11-27T02:51:08.265Z,17.50
2023-11-27T02:53:55.738Z,23.60
2023-11-27T02:56:42.507Z,25.60
2023-11-27T02:59:29.041Z,17.60
2023-11-27T03:02:15.893Z,13.50
2023-11-27T03:05:04.133Z,22.80
2023-11-27T03:07:50.408Z,18.80
2023-11-27T03:10:36.999Z,13.80
2023-11-27T03:13:23.741Z,19.90
2023-11-27T03:16:10.586Z,19.60
2023-11-27T03:18:57.577Z,28.70
2023-11-27T03:21:44.739Z,32.00
2023-11-27T03:24:31.453Z,35.30
2023-11-27T03:27:18.843Z,28.00
2023-11-27T03:30:07.534Z,27.50
2023-11-27T03:32:54.459Z,45.00
2023-11-27T03:35:41.201Z,29.20
2023-11-27T03:38:27.756Z,42.90
2023-11-27T03:41:22.298Z,21.00
2023-11-27T03:44:09.605Z,17.70
2023-11-27T03:46:57.432Z,14.20
2023-11-27T03:49:44.081Z,22.50
2023-11-27T03:52:31.482Z,23.10
2023-11-27T03:55:18.331Z,24.30
2023-11-27T03:58:04.706Z,26.90
2023-11-27T04:00:51.451Z,27.90
2023-11-27T04:03:41.211Z,25.10
2023-11-27T04:06:33.308Z,18.90
2023-11-27T04:09:22.812Z,19.90
2023-11-27T04:12:09.698Z,35.50
2023-11-27T04:14:56.170Z,18.70
2023-11-27T04:17:42.714Z,17.80
2023-11-27T04:20:32.629Z,18.10
2023-11-27T04:23:19.316Z,24.90
2023-11-27T04:26:06.462Z,15.90
2023-11-27T04:28:52.922Z,29.90
2023-11-27T04:31:39.405Z,19.80
2023-11-27T04:34:25.999Z,16.80
2023-11-27T04:37:16.068Z,17.70
2023-11-27T04:40:03.349Z,26.90
2023-11-27T04:42:50.554Z,20.40
2023-11-27T04:45:36.841Z,22.10
2023-11-27T04:48:23.736Z,22.10
2023-11-27T04:51:10.454Z,19.20
2023-11-27T04:53:57.133Z,20.20
2023-11-27T04:56:43.992Z,18.10
2023-11-27T04:59:31.097Z,20.00
2023-11-27T05:02:18.778Z,20.50
2023-11-27T05:05:06.915Z,17.80
2023-11-27T05:07:53.293Z,20.40
2023-11-27T05:10:40.441Z,16.90
2023-11-27T05:13:26.970Z,21.10
2023-11-27T05:16:14.367Z,21.00
2023-11-27T05:19:00.812Z,27.40
2023-11-27T05:21:47.749Z,29.90
2023-11-27T05:24:34.349Z,25.00
2023-11-27T05:27:21.465Z,17.90
2023-11-27T05:30:08.597Z,19.10
2023-11-27T05:32:54.916Z,17.20
2023-11-27T05:35:41.344Z,25.90
2023-11-27T05:38:27.592Z,19.20
2023-11-27T05:41:14.022Z,25.70
2023-11-27T05:44:00.935Z,13.10
2023-11-27T05:46:47.619Z,52.70
2023-11-27T05:49:34.654Z,25.40
2023-11-27T05:52:21.333Z,18.30
2023-11-27T05:55:08.663Z,27.50
2023-11-27T05:57:56.089Z,20.40
2023-11-27T06:00:42.449Z,24.00
2023-11-27T06:03:30.136Z,24.70
2023-11-27T06:06:18.253Z,19.40
2023-11-27T06:09:07.958Z,21.20
2023-11-27T06:11:55.238Z,20.90
2023-11-27T06:14:41.516Z,29.90
2023-11-27T06:17:28.037Z,24.50
2023-11-27T06:20:15.791Z,20.50
2023-11-27T06:23:02.252Z,27.10
2023-11-27T06:25:48.899Z,29.00
2023-11-27T06:28:35.346Z,19.30
2023-11-27T06:31:22.433Z,20.30
2023-11-27T06:34:09.107Z,22.30
2023-11-27T06:36:55.656Z,35.20
2023-11-27T06:39:42.008Z,23.90
2023-11-27T06:42:28.995Z,22.90
2023-11-27T06:45:15.378Z,25.30
2023-11-27T06:48:02.022Z,24.10
2023-11-27T06:50:49.318Z,24.60
2023-11-27T06:53:35.879Z,28.30
2023-11-27T06:56:22.251Z,21.20
2023-11-27T06:59:09.188Z,15.70
2023-11-27T07:01:55.912Z,17.70
2023-11-27T07:04:42.536Z,21.60
2023-11-27T07:07:29.479Z,16.00
2023-11-27T07:10:16.472Z,17.70
2023-11-27T07:13:03.204Z,19.30
2023-11-27T07:15:51.140Z,18.40
2023-11-27T07:18:37.741Z,24.80
2023-11-27T07:21:28.814Z,19.90
2023-11-27T07:24:15.373Z,19.50
2023-11-27T07:27:05.645Z,15.10
2023-11-27T07:29:53.575Z,21.90
2023-11-27T07:32:40.149Z,20.40
2023-11-27T07:35:27.062Z,18.20
2023-11-27T07:38:13.570Z,25.40
2023-11-27T07:41:00.395Z,20.50
2023-11-27T07:43:47.023Z,25.00
2023-11-27T07:46:33.480Z,29.30
2023-11-27T07:49:20.626Z,24.50
2023-11-27T07:52:06.976Z,24.00
2023-11-27T07:54:53.348Z,28.60
2023-11-27T07:57:39.707Z,17.80
2023-11-27T08:00:27.782Z,19.40
2023-11-27T08:03:14.495Z,18.80
2023-11-27T08:06:00.897Z,21.00
2023-11-27T08:08:47.288Z,32.70
2023-11-27T08:11:35.286Z,24.90
2023-11-27T08:14:22.726Z,20.90
2023-11-27T08:17:09.324Z,19.90
2023-11-27T08:19:55.943Z,19.20
2023-11-27T08:22:46.629Z,18.20
2023-11-27T08:25:34.289Z,20.30
2023-11-27T08:28:22.871Z,18.50
2023-11-27T08:31:10.325Z,14.80
2023-11-27T08:33:56.760Z,11.80
2023-11-27T08:36:45.839Z,17.60
2023-11-27T08:39:33.147Z,18.50
2023-11-27T08:42:19.580Z,16.50
2023-11-27T08:45:21.015Z,16.20
2023-11-27T08:48:08.309Z,18.70
2023-11-27T08:50:54.891Z,17.40
2023-11-27T08:53:42.221Z,18.90
2023-11-27T08:56:34.900Z,13.50
2023-11-27T08:59:21.575Z,17.00
2023-11-27T09:02:08.381Z,20.90
2023-11-27T09:04:56.389Z,16.50
2023-11-27T09:07:43.101Z,18.60
2023-11-27T09:10:29.429Z,15.90
2023-11-27T09:13:16.173Z,15.70
2023-11-27T09:16:03.207Z,17.30
2023-11-27T09:18:50.169Z,16.30
2023-11-27T09:21:36.881Z,9.60
2023-11-27T09:24:23.229Z,8.20
2023-11-27T09:27:09.935Z,13.50
2023-11-27T09:29:56.464Z,11.80
2023-11-27T09:32:42.884Z,12.60
2023-11-27T09:35:29.431Z,15.90
2023-11-27T09:38:16.415Z,13.20
2023-11-27T09:41:04.246Z,14.00
2023-11-27T09:43:51.061Z,21.80
2023-11-27T09:46:39.026Z,14.50
2023-11-27T09:49:30.045Z,14.20
2023-11-27T09:52:21.523Z,15.70
2023-11-27T09:55:11.477Z,18.80
2023-11-27T09:58:00.692Z,26.30
2023-11-27T10:00:50.383Z,19.10
2023-11-27T10:03:37.690Z,15.00
2023-11-27T10:06:26.076Z,15.60
2023-11-27T10:09:15.548Z,12.40
2023-11-27T10:12:02.784Z,18.70
2023-11-27T10:14:49.670Z,23.40
2023-11-27T10:17:36.308Z,19.20
2023-11-27T10:20:25.739Z,18.60
2023-11-27T10:23:13.718Z,19.20
2023-11-27T10:26:02.196Z,13.90
2023-11-27T10:28:49.839Z,14.50
2023-11-27T10:31:38.507Z,10.90
2023-11-27T10:34:27.427Z,8.90
2023-11-27T10:37:14.693Z,10.50
2023-11-27T10:40:02.306Z,11.30
2023-11-27T10:42:50.359Z,14.80
2023-11-27T10:45:37.761Z,15.50
2023-11-27T10:48:37.416Z,17.00
2023-11-27T10:51:34.928Z,12.40
2023-11-27T10:54:25.286Z,16.10
2023-11-27T10:57:13.631Z,18.50
2023-11-27T11:00:00.738Z,14.70
2023-11-27T11:02:52.291Z,15.50
2023-11-27T11:05:50.618Z,18.10
2023-11-27T11:08:38.611Z,12.50
2023-11-27T11:11:25.375Z,13.60
2023-11-27T11:14:15.015Z,10.60
2023-11-27T11:17:09.488Z,9.40
2023-11-27T11:20:32.883Z,10.70
2023-11-27T11:23:36.581Z,10.10
2023-11-27T11:26:47.172Z,13.70
2023-11-27T11:29:37.486Z,12.80
2023-11-27T11:32:29.815Z,11.30
2023-11-27T11:35:19.186Z,8.40
2023-11-27T11:38:32.302Z,8.90
2023-11-27T11:41:18.736Z,15.60
2023-11-27T11:44:21.373Z,11.30
2023-11-27T11:47:28.693Z,16.20
2023-11-27T11:50:30.618Z,10.80
2023-11-27T11:53:23.445Z,14.50
2023-11-27T11:56:21.017Z,15.50
2023-11-27T11:59:14.760Z,16.90
2023-11-27T12:02:01.177Z,13.60
2023-11-27T12:04:55.357Z,15.40
2023-11-27T12:07:42.156Z,18.70
2023-11-27T12:10:32.394Z,12.20
2023-11-27T12:13:25.211Z,16.00
2023-11-27T12:16:13.963Z,11.40
2023-11-27T12:19:01.519Z,11.20
2023-11-27T12:22:05.619Z,12.00
2023-11-27T12:24:54.021Z,9.50
2023-11-27T12:27:40.493Z,16.00
2023-11-27T12:30:27.056Z,16.10
2023-11-27T12:33:16.584Z,16.70
2023-11-27T12:36:06.392Z,16.70
2023-11-27T12:38:54.508Z,11.90
2023-11-27T12:41:44.782Z,16.30
2023-11-27T12:44:32.847Z,13.40
2023-11-27T12:47:20.526Z,18.40
2023-11-27T12:50:23.891Z,58.00
2023-11-27T12:53:11.137Z,16.60
2023-11-27T12:55:57.868Z,14.70
2023-11-27T12:58:44.384Z,17.30
2023-11-27T13:01:30.692Z,19.70
2023-11-27T13:04:17.293Z,19.00
2023-11-27T13:07:14.004Z,15.90
2023-11-27T13:10:10.646Z,20.80
2023-11-27T13:12:57.166Z,13.40
2023-11-27T13:15:44.054Z,19.20
2023-11-27T13:18:32.935Z,17.40
2023-11-27T13:21:22.932Z,23.30
2023-11-27T13:24:14.464Z,19.80
2023-11-27T13:27:06.865Z,15.00
2023-11-27T13:29:53.825Z,15.10
2023-11-27T13:32:40.641Z,13.20
2023-11-27T13:35:33.530Z,13.90
2023-11-27T13:38:21.119Z,20.70
2023-11-27T13:41:11.412Z,20.40
2023-11-27T13:43:57.856Z,24.00
2023-11-27T13:46:44.829Z,27.20
2023-11-27T13:49:33.218Z,28.40
2023-11-27T13:52:20.441Z,27.70
2023-11-27T13:55:11.253Z,37.20
2023-11-27T14:00:49.749Z,20.10
2023-11-27T14:03:37.768Z,24.70
2023-11-27T14:06:26.651Z,23.20
2023-11-27T14:09:46.322Z,27.20
2023-11-27T14:12:44.947Z,30.00
2023-11-27T14:15:40.514Z,30.90
2023-11-27T14:18:28.079Z,33.20
2023-11-27T14:21:20.626Z,26.90
2023-11-27T14:24:16.834Z,33.00
2023-11-27T14:27:27.345Z,37.60
2023-11-27T14:30:15.009Z,31.80
2023-11-27T14:33:02.723Z,36.80
2023-11-27T14:35:50.371Z,34.60
2023-11-27T14:38:36.814Z,31.60
2023-11-27T14:41:23.696Z,27.30
2023-11-27T14:44:14.549Z,31.70
2023-11-27T14:47:01.123Z,54.40
2023-11-27T14:49:48.047Z,55.60
2023-11-27T14:52:34.912Z,43.10
2023-11-27T14:55:21.758Z,46.60
2023-11-27T14:58:08.485Z,48.10
2023-11-27T15:00:57.847Z,44.50
2023-11-27T15:03:46.723Z,40.30
2023-11-27T15:06:36.235Z,27.80
2023-11-27T15:09:23.837Z,42.70
2023-11-27T15:12:12.768Z,30.10
2023-11-27T15:14:59.464Z,24.30
2023-11-27T15:17:48.654Z,29.00
2023-11-27T15:20:36.266Z,22.90
2023-11-27T15:23:22.928Z,52.90
2023-11-27T15:26:10.629Z,81.00
2023-11-27T15:28:57.659Z,1227.00
2023-11-27T15:31:44.551Z,1060.10
2023-11-27T15:34:31.570Z,757.80
2023-11-27T15:37:18.206Z,185.90
2023-11-27T15:40:05.733Z,297.50
2023-11-27T15:42:51.973Z,284.60
2023-11-27T15:45:42.328Z,172.60
2023-11-27T15:48:29.066Z,157.90
2023-11-27T15:51:15.521Z,191.30
2023-11-27T15:54:01.862Z,132.10
2023-11-27T15:56:48.318Z,169.00
2023-11-27T15:59:35.382Z,129.30
2023-11-27T16:02:22.146Z,175.50
2023-11-27T16:05:11.180Z,156.00
2023-11-27T16:08:00.693Z,128.80
2023-11-27T16:10:49.972Z,125.10
2023-11-27T16:13:37.367Z,130.30
2023-11-27T16:16:26.094Z,139.60
2023-11-27T16:19:12.701Z,115.70
2023-11-27T16:21:59.100Z,125.30
2023-11-27T16:24:47.119Z,112.60
2023-11-27T16:27:35.332Z,122.60
2023-11-27T16:30:23.101Z,109.30
2023-11-27T16:33:10.349Z,116.10
2023-11-27T16:36:00.871Z,102.00
2023-11-27T16:38:47.421Z,107.10
2023-11-27T16:41:34.742Z,143.60
2023-11-27T16:44:23.396Z,157.00
2023-11-27T16:47:20.006Z,152.50
2023-11-27T16:50:14.301Z,172.50
2023-11-27T16:53:01.411Z,167.00
2023-11-27T16:55:47.927Z,160.80
2023-11-27T16:58:34.415Z,144.10
2023-11-27T17:01:21.549Z,121.00
2023-11-27T17:04:09.182Z,93.10
2023-11-27T17:06:56.500Z,118.20
2023-11-27T17:09:43.206Z,134.90
2023-11-27T17:12:29.585Z,155.70
2023-11-27T17:15:17.803Z,109.90
2023-11-27T17:18:04.469Z,129.40
2023-11-27T17:20:51.372Z,132.80
2023-11-27T17:23:39.016Z,137.40
2023-11-27T17:26:25.876Z,160.70
2023-11-27T17:29:14.788Z,118.30
2023-11-27T17:32:02.542Z,148.70
2023-11-27T17:34:49.248Z,165.30
2023-11-27T17:37:36.344Z,153.70
2023-11-27T17:40:23.669Z,163.30
2023-11-27T17:43:13.453Z,160.50
2023-11-27T17:45:59.881Z,182.70
2023-11-27T17:48:47.956Z,244.40
2023-11-27T17:51:35.951Z,211.50
2023-11-27T17:54:22.738Z,163.60
2023-11-27T17:57:09.746Z,150.40
2023-11-27T17:59:56.503Z,149.00
2023-11-27T18:02:51.210Z,146.70
2023-11-27T18:05:38.065Z,134.70
2023-11-27T18:08:24.599Z,114.80
2023-11-27T18:11:12.323Z,71.40
2023-11-27T18:13:58.698Z,157.70
2023-11-27T18:16:45.906Z,188.20
2023-11-27T18:19:32.501Z,178.00
2023-11-27T18:22:19.149Z,148.60
2023-11-27T18:25:06.304Z,141.70
2023-11-27T18:27:57.063Z,141.10
2023-11-27T18:30:43.503Z,145.20
2023-11-27T18:33:30.185Z,128.10
2023-11-27T18:36:17.572Z,137.10
2023-11-27T18:39:04.421Z,146.00
2023-11-27T18:41:50.726Z,121.20
2023-11-27T18:44:38.192Z,132.00
2023-11-27T18:47:24.490Z,135.50
2023-11-27T18:50:13.381Z,126.80
2023-11-27T18:53:02.258Z,104.90
2023-11-27T18:55:48.860Z,132.00
2023-11-27T18:58:35.622Z,137.10
2023-11-27T19:01:24.349Z,112.70
2023-11-27T19:04:11.627Z,137.70
2023-11-27T19:06:58.497Z,131.50
2023-11-27T19:09:45.415Z,115.30
2023-11-27T19:12:32.201Z,129.40
2023-11-27T19:15:20.019Z,144.60
2023-11-27T19:18:08.745Z,132.90
2023-11-27T19:20:55.539Z,125.90
2023-11-27T19:23:42.412Z,125.40
2023-11-27T19:26:29.376Z,125.00
2023-11-27T19:29:16.120Z,102.70
2023-11-27T19:32:02.540Z,97.50
2023-11-27T19:34:50.651Z,150.40
2023-11-27T19:37:37.341Z,82.70
2023-11-27T19:40:24.154Z,125.90
2023-11-27T19:43:11.970Z,139.50
2023-11-27T19:45:59.870Z,153.10
2023-11-27T19:48:47.332Z,169.60
2023-11-27T19:51:34.133Z,193.20
2023-11-27T19:54:20.685Z,163.30
2023-11-27T19:57:07.029Z,143.00
2023-11-27T19:59:55.261Z,164.70
2023-11-27T20:02:42.739Z,133.20
2023-11-27T20:05:29.596Z,158.20
2023-11-27T20:08:16.031Z,155.70
2023-11-27T20:11:04.166Z,158.10
2023-11-27T20:13:50.861Z,161.90
2023-11-27T20:16:40.948Z,172.00
2023-11-27T20:19:27.861Z,151.10
2023-11-27T20:22:15.068Z,141.40
2023-11-27T20:25:01.740Z,134.60
2023-11-27T20:27:48.978Z,125.60
2023-11-27T20:30:35.877Z,120.60
2023-11-27T20:33:43.166Z,113.80
2023-11-27T20:36:30.878Z,118.60
2023-11-27T20:39:17.960Z,113.60
2023-11-27T20:42:04.390Z,118.60
2023-11-27T20:44:55.805Z,124.00
2023-11-27T20:47:44.829Z,114.10
2023-11-27T20:50:31.254Z,128.40
2023-11-27T20:53:18.010Z,116.80
2023-11-27T20:56:04.810Z,106.10
2023-11-27T20:58:52.481Z,139.00
2023-11-27T21:01:39.382Z,140.80
2023-11-27T21:04:26.827Z,148.50
2023-11-27T21:07:13.296Z,179.50
2023-11-27T21:09:59.685Z,272.00
2023-11-27T21:12:46.463Z,227.50
2023-11-27T21:15:32.787Z,195.80
2023-11-27T21:18:20.418Z,169.60
2023-11-27T21:21:07.393Z,167.60
2023-11-27T21:23:54.039Z,143.20
2023-11-27T21:26:40.899Z,153.00
2023-11-27T21:29:27.403Z,152.80
2023-11-27T21:32:15.405Z,152.90
2023-11-27T21:35:03.385Z,140.00
2023-11-27T21:37:50.689Z,164.90
2023-11-27T21:40:37.882Z,153.20
2023-11-27T21:43:24.766Z,244.00
2023-11-27T21:46:11.833Z,181.20
2023-11-27T21:48:58.729Z,156.00
2023-11-27T21:51:45.302Z,164.70
2023-11-27T21:54:31.921Z,158.70
2023-11-27T21:57:18.960Z,187.10
2023-11-27T22:00:11.810Z,182.80
2023-11-27T22:02:58.917Z,183.00
2023-11-27T22:05:45.639Z,187.50
2023-11-27T22:08:32.343Z,192.80
2023-11-27T22:11:20.812Z,183.40
2023-11-27T22:14:07.272Z,203.00
2023-11-27T22:16:54.242Z,226.50
2023-11-27T22:19:40.879Z,201.60
2023-11-27T22:22:27.333Z,205.70
2023-11-27T22:25:13.918Z,203.10
2023-11-27T22:28:00.531Z,180.00
2023-11-27T22:30:47.196Z,202.20
2023-11-27T22:33:33.714Z,156.00
2023-11-27T22:36:20.258Z,161.40
2023-11-27T22:39:06.776Z,144.70
2023-11-27T22:41:53.519Z,141.80
2023-11-27T22:44:40.401Z,120.60
2023-11-27T22:47:26.902Z,109.60
2023-11-27T22:50:13.318Z,105.40
2023-11-27T22:53:00.317Z,107.20
2023-11-27T22:55:47.339Z,97.50
2023-11-27T22:58:34.201Z,107.10
2023-11-27T23:01:20.618Z,111.40
2023-11-27T23:04:07.015Z,96.70
2023-11-27T23:06:54.318Z,106.00
2023-11-27T23:09:40.670Z,100.60
2023-11-27T23:12:27.534Z,88.30
2023-11-27T23:15:14.218Z,82.00
2023-11-27T23:18:00.587Z,91.20
2023-11-27T23:20:47.117Z,89.90
2023-11-27T23:23:33.619Z,80.20
2023-11-27T23:26:20.617Z,73.80
2023-11-27T23:29:08.773Z,73.80
2023-11-27T23:31:58.361Z,69.80
2023-11-27T23:34:46.479Z,83.30
2023-11-27T23:37:33.110Z,77.70
2023-11-27T23:40:20.122Z,82.10
2023-11-27T23:43:06.957Z,82.00
2023-11-27T23:45:53.767Z,50.90
2023-11-27T23:48:40.941Z,91.20
2023-11-27T23:51:30.836Z,76.70
2023-11-27T23:54:16.881Z,73.00
2023-11-27T23:57:04.378Z,71.10
2023-11-27T23:59:50.756Z,73.80
